Wetterdaten: aktuell Samstag, 16.11.2019 22:25
Datum Zeit Temp. A. Feuchte A. Luftdruck Regen Wind Richtung Richtung Taupunkt Windchill Windben
16.11.2019 22:25 3,2 C 97 % 1012,2 hPa 0,0 l/m 5,7 km/h (2 Bft) O-NO 74 2,8 C 3,2 C 12,9 km/h (3 Bft)
16.11.2019 22:20 3,3 C 97 % 1012,3 hPa 0,0 l/m 8,3 km/h (2 Bft) O 84 2,9 C 1,6 C 14,5 km/h (3 Bft)
16.11.2019 22:15 3,3 C 97 % 1012,3 hPa 0,0 l/m 8,3 km/h (2 Bft) O 96 2,9 C 1,6 C 12,9 km/h (3 Bft)
16.11.2019 22:10 3,3 C 97 % 1012,4 hPa 0,0 l/m 10,1 km/h (2 Bft) O 92 2,9 C 0,1 C 16,1 km/h (3 Bft)
16.11.2019 22:05 3,3 C 97 % 1012,4 hPa 0,0 l/m 9,7 km/h (2 Bft) O 84 2,9 C 0,4 C 17,7 km/h (3 Bft)
16.11.2019 22:00 3,3 C 97 % 1012,5 hPa 0,0 l/m 7,5 km/h (2 Bft) O 92 2,9 C 2,3 C 14,5 km/h (3 Bft)
16.11.2019 21:55 3,3 C 97 % 1012,7 hPa 0,0 l/m 6,1 km/h (2 Bft) O 86 2,9 C 3,3 C 12,9 km/h (3 Bft)
16.11.2019 21:50 3,3 C 97 % 1012,8 hPa 0,0 l/m 9,3 km/h (2 Bft) O 81 2,9 C 0,7 C 14,5 km/h (3 Bft)
16.11.2019 21:45 3,3 C 97 % 1012,8 hPa 0,0 l/m 10,1 km/h (2 Bft) O 85 2,9 C 0,1 C 14,5 km/h (3 Bft)
16.11.2019 21:40 3,3 C 97 % 1012,9 hPa 0,0 l/m 13,7 km/h (3 Bft) O 84 2,9 C -2,3 C 17,7 km/h (3 Bft)
16.11.2019 21:35 3,3 C 97 % 1012,9 hPa 0,0 l/m 9,6 km/h (2 Bft) O-NO 75 2,9 C 0,5 C 14,5 km/h (3 Bft)
16.11.2019 21:30 3,3 C 97 % 1013,0 hPa 0,0 l/m 7,4 km/h (2 Bft) O 80 2,9 C 2,4 C 12,9 km/h (3 Bft)
16.11.2019 21:25 3,3 C 97 % 1013,1 hPa 0,0 l/m 12,1 km/h (2 Bft) O 79 2,9 C -1,3 C 17,7 km/h (3 Bft)
16.11.2019 21:20 3,3 C 97 % 1013,1 hPa 0,0 l/m 11,4 km/h (2 Bft) O 84 2,9 C -0,8 C 16,1 km/h (3 Bft)
16.11.2019 21:15 3,3 C 97 % 1013,1 hPa 0,0 l/m 5,9 km/h (2 Bft) O 80 2,9 C 3,3 C 12,9 km/h (3 Bft)
16.11.2019 21:10 3,3 C 97 % 1013,2 hPa 0,0 l/m 4,3 km/h (1 Bft) O 88 2,9 C 3,3 C 11,3 km/h (2 Bft)
16.11.2019 21:05 3,3 C 97 % 1013,2 hPa 0,0 l/m 6,7 km/h (2 Bft) O 83 2,9 C 3,0 C 11,3 km/h (2 Bft)
16.11.2019 21:00 3,3 C 97 % 1013,1 hPa 0,0 l/m 8,7 km/h (2 Bft) O 82 2,9 C 1,2 C 16,1 km/h (3 Bft)
16.11.2019 20:55 3,3 C 97 % 1013,1 hPa 0,0 l/m 6,6 km/h (2 Bft) O 101 2,9 C 3,1 C 12,9 km/h (3 Bft)
16.11.2019 20:50 3,3 C 97 % 1013,0 hPa 0,0 l/m 4,6 km/h (1 Bft) O-NO 77 2,9 C 3,3 C 11,3 km/h (2 Bft)
16.11.2019 20:45 3,4 C 97 % 1012,9 hPa 0,0 l/m 3,9 km/h (1 Bft) O-NO 78 3,0 C 3,4 C 11,3 km/h (2 Bft)
16.11.2019 20:40 3,3 C 96 % 1012,9 hPa 0,0 l/m 3,8 km/h (1 Bft) O-NO 78 2,7 C 3,3 C 8,0 km/h (2 Bft)
16.11.2019 20:35 3,4 C 96 % 1012,8 hPa 0,0 l/m 4,9 km/h (1 Bft) O-NO 74 2,8 C 3,4 C 11,3 km/h (2 Bft)
16.11.2019 20:30 3,3 C 96 % 1012,9 hPa 0,0 l/m 5,3 km/h (1 Bft) O-NO 68 2,7 C 3,3 C 12,9 km/h (3 Bft)
16.11.2019 20:25 3,3 C 96 % 1013,0 hPa 0,0 l/m 2,5 km/h (1 Bft) O 80 2,7 C 3,3 C 4,8 km/h (1 Bft)
16.11.2019 20:20 3,3 C 96 % 1013,1 hPa 0,0 l/m 0,9 km/h (0 Bft) O-NO 74 2,7 C 3,3 C 3,2 km/h (1 Bft)
16.11.2019 20:15 3,3 C 96 % 1013,2 hPa 0,0 l/m 1,7 km/h (1 Bft) O-NO 75 2,7 C 3,3 C 4,8 km/h (1 Bft)
16.11.2019 20:10 3,3 C 96 % 1013,2 hPa 0,0 l/m 1,8 km/h (1 Bft) O 79 2,7 C 3,3 C 4,8 km/h (1 Bft)
16.11.2019 20:05 3,3 C 96 % 1013,3 hPa 0,0 l/m 2,1 km/h (1 Bft) O 85 2,7 C 3,3 C 3,2 km/h (1 Bft)
16.11.2019 20:00 3,3 C 96 % 1013,1 hPa 0,0 l/m 3,8 km/h (1 Bft) O 101 2,7 C 3,3 C 4,8 km/h (1 Bft)
16.11.2019 19:55 3,3 C 96 % 1013,0 hPa 0,0 l/m 1,1 km/h (1 Bft) SO 136 2,7 C 3,3 C 3,2 km/h (1 Bft)
16.11.2019 19:50 3,3 C 96 % 1012,9 hPa 0,0 l/m 2,5 km/h (1 Bft) SO 136 2,7 C 3,3 C 4,8 km/h (1 Bft)
16.11.2019 19:45 3,2 C 96 % 1013,0 hPa 0,0 l/m 2,6 km/h (1 Bft) O-SO 112 2,6 C 3,2 C 4,8 km/h (1 Bft)
16.11.2019 19:40 3,2 C 96 % 1013,0 hPa 0,0 l/m 0,9 km/h (0 Bft) O 98 2,6 C 3,2 C 3,2 km/h (1 Bft)
16.11.2019 19:35 3,1 C 96 % 1012,9 hPa 0,0 l/m 2,6 km/h (1 Bft) O 96 2,5 C 3,1 C 6,4 km/h (2 Bft)
16.11.2019 19:30 3,1 C 96 % 1012,7 hPa 0,0 l/m 2,9 km/h (1 Bft) O 91 2,5 C 3,1 C 6,4 km/h (2 Bft)
16.11.2019 19:25 3,0 C 96 % 1012,7 hPa 0,0 l/m 3,0 km/h (1 Bft) O 96 2,4 C 3,0 C 6,4 km/h (2 Bft)
16.11.2019 19:20 2,9 C 96 % 1012,6 hPa 0,0 l/m 4,7 km/h (1 Bft) O-SO 105 2,3 C 2,9 C 9,7 km/h (2 Bft)
16.11.2019 19:15 2,8 C 95 % 1012,6 hPa 0,0 l/m 7,3 km/h (2 Bft) O-SO 105 2,1 C 1,9 C 11,3 km/h (2 Bft)
16.11.2019 19:10 2,6 C 95 % 1012,6 hPa 0,0 l/m 8,6 km/h (2 Bft) O-SO 108 1,9 C 0,6 C 12,9 km/h (3 Bft)
16.11.2019 19:05 2,5 C 95 % 1012,5 hPa 0,0 l/m 6,5 km/h (2 Bft) O-SO 107 1,8 C 2,4 C 11,3 km/h (2 Bft)
16.11.2019 19:00 2,4 C 95 % 1012,6 hPa 0,0 l/m 2,5 km/h (1 Bft) O-SO 112 1,7 C 2,4 C 4,8 km/h (1 Bft)
16.11.2019 18:55 2,5 C 94 % 1012,5 hPa 0,0 l/m 3,1 km/h (1 Bft) O-SO 105 1,6 C 2,5 C 4,8 km/h (1 Bft)
16.11.2019 18:50 2,6 C 95 % 1012,4 hPa 0,0 l/m 3,9 km/h (1 Bft) O-SO 112 1,9 C 2,6 C 6,4 km/h (2 Bft)
16.11.2019 18:45 2,7 C 95 % 1012,2 hPa 0,0 l/m 5,5 km/h (2 Bft) O 100 2,0 C 2,7 C 11,3 km/h (2 Bft)
16.11.2019 18:40 2,8 C 94 % 1012,2 hPa 0,0 l/m 3,0 km/h (1 Bft) O-SO 104 1,9 C 2,8 C 6,4 km/h (2 Bft)
16.11.2019 18:35 2,9 C 94 % 1011,9 hPa 0,0 l/m 2,6 km/h (1 Bft) O 93 2,0 C 2,9 C 4,8 km/h (1 Bft)
16.11.2019 18:30 2,9 C 95 % 1011,9 hPa 0,0 l/m 5,1 km/h (1 Bft) O-SO 105 2,2 C 2,9 C 11,3 km/h (2 Bft)
16.11.2019 18:25 3,0 C 94 % 1012,0 hPa 0,0 l/m 6,6 km/h (2 Bft) O-SO 102 2,1 C 2,8 C 12,9 km/h (3 Bft)
16.11.2019 18:20 3,1 C 94 % 1011,9 hPa 0,0 l/m 7,0 km/h (2 Bft) O 94 2,2 C 2,5 C 12,9 km/h (3 Bft)
16.11.2019 18:15 3,2 C 95 % 1012,0 hPa 0,0 l/m 8,8 km/h (2 Bft) O 101 2,5 C 1,0 C 12,9 km/h (3 Bft)
16.11.2019 18:10 3,4 C 94 % 1012,0 hPa 0,0 l/m 5,7 km/h (2 Bft) O-SO 103 2,5 C 3,4 C 11,3 km/h (2 Bft)
16.11.2019 18:05 3,5 C 94 % 1012,1 hPa 0,0 l/m 4,1 km/h (1 Bft) O 86 2,6 C 3,5 C 9,7 km/h (2 Bft)
16.11.2019 18:00 3,6 C 95 % 1012,0 hPa 0,0 l/m 2,7 km/h (1 Bft) O 80 2,9 C 3,6 C 6,4 km/h (2 Bft)
16.11.2019 17:55 3,7 C 95 % 1012,0 hPa 0,0 l/m 5,4 km/h (2 Bft) O-NO 74 3,0 C 3,7 C 11,3 km/h (2 Bft)
16.11.2019 17:50 3,8 C 95 % 1012,0 hPa 0,0 l/m 6,8 km/h (2 Bft) O 84 3,1 C 3,4 C 11,3 km/h (2 Bft)
16.11.2019 17:45 3,9 C 95 % 1012,0 hPa 0,0 l/m 9,1 km/h (2 Bft) O 84 3,2 C 1,5 C 14,5 km/h (3 Bft)
16.11.2019 17:40 4,0 C 95 % 1012,2 hPa 0,0 l/m 4,2 km/h (1 Bft) O 83 3,3 C 4,0 C 9,7 km/h (2 Bft)
16.11.2019 17:35 4,0 C 95 % 1012,2 hPa 0,0 l/m 4,9 km/h (1 Bft) O 99 3,3 C 4,0 C 11,3 km/h (2 Bft)
16.11.2019 17:30 4,0 C 95 % 1012,4 hPa 0,0 l/m 8,8 km/h (2 Bft) O 86 3,3 C 1,9 C 12,9 km/h (3 Bft)
16.11.2019 17:25 4,1 C 94 % 1012,4 hPa 0,0 l/m 10,8 km/h (2 Bft) O 94 3,2 C 0,5 C 12,9 km/h (3 Bft)
16.11.2019 17:20 4,2 C 94 % 1012,3 hPa 0,0 l/m 7,9 km/h (2 Bft) O 92 3,3 C 2,8 C 14,5 km/h (3 Bft)
16.11.2019 17:15 4,2 C 94 % 1012,3 hPa 0,0 l/m 10,1 km/h (2 Bft) O 85 3,3 C 1,1 C 14,5 km/h (3 Bft)
16.11.2019 17:10 4,3 C 94 % 1012,3 hPa 0,0 l/m 9,3 km/h (2 Bft) O 101 3,4 C 1,8 C 12,9 km/h (3 Bft)
16.11.2019 17:05 4,3 C 94 % 1012,3 hPa 0,0 l/m 9,9 km/h (2 Bft) O 92 3,4 C 1,4 C 14,5 km/h (3 Bft)
16.11.2019 17:00 4,4 C 94 % 1012,3 hPa 0,0 l/m 8,4 km/h (2 Bft) O-NO 74 3,5 C 2,6 C 12,9 km/h (3 Bft)
16.11.2019 16:55 4,5 C 94 % 1012,3 hPa 0,0 l/m 7,1 km/h (2 Bft) O 80 3,6 C 3,9 C 11,3 km/h (2 Bft)
16.11.2019 16:50 4,6 C 94 % 1012,3 hPa 0,0 l/m 9,0 km/h (2 Bft) O-NO 69 3,7 C 2,4 C 14,5 km/h (3 Bft)
16.11.2019 16:45 4,6 C 94 % 1012,1 hPa 0,0 l/m 8,9 km/h (2 Bft) O 88 3,7 C 2,5 C 12,9 km/h (3 Bft)
16.11.2019 16:40 4,6 C 94 % 1012,3 hPa 0,0 l/m 6,8 km/h (2 Bft) O 86 3,7 C 4,3 C 11,3 km/h (2 Bft)
16.11.2019 16:35 4,7 C 94 % 1012,3 hPa 0,0 l/m 7,8 km/h (2 Bft) O 84 3,8 C 3,5 C 12,9 km/h (3 Bft)
16.11.2019 16:30 4,7 C 94 % 1012,3 hPa 0,0 l/m 5,1 km/h (1 Bft) O 82 3,8 C 4,7 C 9,7 km/h (2 Bft)
16.11.2019 16:25 4,7 C 94 % 1012,4 hPa 0,0 l/m 9,3 km/h (2 Bft) O 92 3,8 C 2,3 C 14,5 km/h (3 Bft)
16.11.2019 16:20 4,8 C 93 % 1012,5 hPa 0,0 l/m 12,6 km/h (3 Bft) O 97 3,8 C 0,2 C 16,1 km/h (3 Bft)
16.11.2019 16:15 4,9 C 93 % 1012,5 hPa 0,0 l/m 13,3 km/h (3 Bft) O 81 3,9 C -0,1 C 16,1 km/h (3 Bft)
16.11.2019 16:10 4,9 C 93 % 1012,5 hPa 0,0 l/m 11,4 km/h (2 Bft) O-SO 109 3,9 C 1,0 C 14,5 km/h (3 Bft)
16.11.2019 16:05 4,9 C 93 % 1012,5 hPa 0,0 l/m 13,2 km/h (3 Bft) O 86 3,9 C -0,1 C 16,1 km/h (3 Bft)
16.11.2019 16:00 5,1 C 92 % 1012,2 hPa 0,0 l/m 10,8 km/h (2 Bft) O 99 3,9 C 1,6 C 16,1 km/h (3 Bft)
16.11.2019 15:55 5,1 C 92 % 1012,1 hPa 0,0 l/m 9,7 km/h (2 Bft) O 88 3,9 C 2,4 C 14,5 km/h (3 Bft)
16.11.2019 15:50 5,2 C 92 % 1012,0 hPa 0,0 l/m 10,6 km/h (2 Bft) O 90 4,0 C 1,9 C 14,5 km/h (3 Bft)
16.11.2019 15:45 5,3 C 92 % 1011,9 hPa 0,0 l/m 13,1 km/h (3 Bft) O 86 4,1 C 0,5 C 17,7 km/h (3 Bft)
16.11.2019 15:40 5,5 C 92 % 1011,6 hPa 0,0 l/m 12,2 km/h (2 Bft) O 88 4,3 C 1,2 C 17,7 km/h (3 Bft)
16.11.2019 15:35 5,6 C 91 % 1011,6 hPa 0,0 l/m 12,8 km/h (3 Bft) O-SO 103 4,2 C 1,0 C 16,1 km/h (3 Bft)
16.11.2019 15:30 5,8 C 91 % 1011,4 hPa 0,0 l/m 13,1 km/h (3 Bft) O 91 4,4 C 1,0 C 16,1 km/h (3 Bft)
16.11.2019 15:25 5,9 C 92 % 1011,4 hPa 0,0 l/m 12,9 km/h (3 Bft) O 94 4,7 C 1,3 C 16,1 km/h (3 Bft)
16.11.2019 15:20 5,9 C 92 % 1011,2 hPa 0,0 l/m 7,4 km/h (2 Bft) O 88 4,7 C 5,0 C 12,9 km/h (3 Bft)
16.11.2019 15:15 5,9 C 92 % 1011,1 hPa 0,0 l/m 4,8 km/h (1 Bft) O-SO 104 4,7 C 5,9 C 9,7 km/h (2 Bft)
16.11.2019 15:10 5,9 C 92 % 1011,0 hPa 0,0 l/m 8,2 km/h (2 Bft) SO 141 4,7 C 4,4 C 14,5 km/h (3 Bft)
16.11.2019 15:05 5,9 C 93 % 1010,9 hPa 0,0 l/m 5,2 km/h (1 Bft) O-SO 117 4,9 C 5,9 C 11,3 km/h (2 Bft)
16.11.2019 15:00 5,8 C 93 % 1010,8 hPa 0,0 l/m 1,9 km/h (1 Bft) SW 224 4,8 C 5,8 C 4,8 km/h (1 Bft)
16.11.2019 14:55 5,7 C 94 % 1010,5 hPa 0,0 l/m 1,3 km/h (1 Bft) SW 228 4,8 C 5,7 C 6,4 km/h (2 Bft)
16.11.2019 14:50 5,6 C 94 % 1010,3 hPa 0,0 l/m 0,0 km/h (0 Bft) S 169 4,7 C 5,6 C 1,6 km/h (1 Bft)
16.11.2019 14:45 5,6 C 94 % 1010,2 hPa 0,0 l/m 1,2 km/h (1 Bft) S 169 4,7 C 5,6 C 6,4 km/h (2 Bft)
16.11.2019 14:40 5,7 C 94 % 1010,2 hPa 0,0 l/m 5,4 km/h (2 Bft) S 169 4,8 C 5,7 C 9,7 km/h (2 Bft)
16.11.2019 14:35 5,7 C 94 % 1010,3 hPa 0,0 l/m 2,9 km/h (1 Bft) SW 229 4,8 C 5,7 C 4,8 km/h (1 Bft)
16.11.2019 14:30 5,8 C 94 % 1010,3 hPa 0,0 l/m 2,7 km/h (1 Bft) S-SO 160 4,9 C 5,8 C 12,9 km/h (3 Bft)
16.11.2019 14:25 5,8 C 95 % 1010,5 hPa 0,0 l/m 5,0 km/h (1 Bft) S-SO 148 5,1 C 5,8 C 11,3 km/h (2 Bft)
16.11.2019 14:20 5,9 C 95 % 1010,4 hPa 0,0 l/m 6,9 km/h (2 Bft) S-SO 157 5,2 C 5,5 C 12,9 km/h (3 Bft)
16.11.2019 14:15 5,9 C 96 % 1010,2 hPa 0,0 l/m 6,6 km/h (2 Bft) S-SO 147 5,3 C 5,8 C 14,5 km/h (3 Bft)
16.11.2019 14:10 5,9 C 96 % 1010,4 hPa 0,0 l/m 4,9 km/h (1 Bft) S 180 5,3 C 5,9 C 9,7 km/h (2 Bft)
16.11.2019 14:05 5,9 C 96 % 1010,4 hPa 0,0 l/m 5,5 km/h (2 Bft) S 169 5,3 C 5,9 C 11,3 km/h (2 Bft)
16.11.2019 14:00 5,8 C 97 % 1010,5 hPa 0,0 l/m 6,1 km/h (2 Bft) S-SO 167 5,4 C 5,8 C 11,3 km/h (2 Bft)
16.11.2019 13:55 5,7 C 97 % 1010,5 hPa 0,0 l/m 7,1 km/h (2 Bft) S 175 5,3 C 5,1 C 11,3 km/h (2 Bft)
16.11.2019 13:50 5,6 C 97 % 1010,6 hPa 0,0 l/m 3,8 km/h (1 Bft) SO 141 5,2 C 5,6 C 6,4 km/h (2 Bft)
16.11.2019 13:45 5,6 C 97 % 1010,5 hPa 0,0 l/m 6,7 km/h (2 Bft) S 180 5,2 C 5,4 C 12,9 km/h (3 Bft)
16.11.2019 13:40 5,6 C 97 % 1010,7 hPa 0,0 l/m 8,8 km/h (2 Bft) SO 144 5,2 C 3,6 C 14,5 km/h (3 Bft)
16.11.2019 13:35 5,6 C 97 % 1010,7 hPa 0,0 l/m 5,4 km/h (2 Bft) SO 142 5,2 C 5,6 C 11,3 km/h (2 Bft)
16.11.2019 13:30 5,5 C 97 % 1010,7 hPa 0,0 l/m 3,3 km/h (1 Bft) S 182 5,1 C 5,5 C 6,4 km/h (2 Bft)
16.11.2019 13:25 5,4 C 97 % 1010,6 hPa 0,0 l/m 5,6 km/h (2 Bft) SO 134 5,0 C 5,4 C 12,9 km/h (3 Bft)
16.11.2019 13:20 5,4 C 98 % 1010,7 hPa 0,0 l/m 6,1 km/h (2 Bft) SO 129 5,1 C 5,4 C 12,9 km/h (3 Bft)
16.11.2019 13:15 5,3 C 97 % 1010,7 hPa 0,0 l/m 5,3 km/h (1 Bft) S-SO 148 4,9 C 5,3 C 9,7 km/h (2 Bft)
16.11.2019 13:10 5,1 C 98 % 1010,7 hPa 0,0 l/m 5,6 km/h (2 Bft) SO 140 4,8 C 5,1 C 11,3 km/h (2 Bft)
16.11.2019 13:05 5,0 C 98 % 1010,7 hPa 0,0 l/m 6,6 km/h (2 Bft) SO 144 4,7 C 4,8 C 11,3 km/h (2 Bft)
16.11.2019 13:00 4,9 C 98 % 1010,8 hPa 0,0 l/m 7,6 km/h (2 Bft) S-SO 159 4,6 C 3,8 C 12,9 km/h (3 Bft)
16.11.2019 12:55 4,8 C 98 % 1010,7 hPa 0,0 l/m 4,0 km/h (1 Bft) SO 144 4,5 C 4,8 C 8,0 km/h (2 Bft)
16.11.2019 12:50 4,7 C 98 % 1010,6 hPa 0,0 l/m 4,5 km/h (1 Bft) S-SO 152 4,4 C 4,7 C 11,3 km/h (2 Bft)
16.11.2019 12:45 4,7 C 97 % 1010,6 hPa 0,0 l/m 8,9 km/h (2 Bft) S-SO 153 4,3 C 2,6 C 12,9 km/h (3 Bft)
16.11.2019 12:40 4,6 C 98 % 1010,6 hPa 0,0 l/m 8,3 km/h (2 Bft) SO 143 4,3 C 2,9 C 14,5 km/h (3 Bft)
16.11.2019 12:35 4,5 C 98 % 1010,6 hPa 0,0 l/m 9,8 km/h (2 Bft) SO 137 4,2 C 1,7 C 16,1 km/h (3 Bft)
16.11.2019 12:30 4,4 C 97 % 1010,6 hPa 0,0 l/m 7,7 km/h (2 Bft) O-SO 119 4,0 C 3,2 C 12,9 km/h (3 Bft)
16.11.2019 12:25 4,3 C 98 % 1010,5 hPa 0,0 l/m 7,7 km/h (2 Bft) S 182 4,0 C 3,1 C 14,5 km/h (3 Bft)
16.11.2019 12:20 4,1 C 98 % 1010,5 hPa 0,0 l/m 10,9 km/h (2 Bft) S-SO 161 3,8 C 0,4 C 14,5 km/h (3 Bft)
16.11.2019 12:15 4,1 C 97 % 1010,5 hPa 0,0 l/m 12,4 km/h (2 Bft) SO 138 3,7 C -0,5 C 17,7 km/h (3 Bft)
16.11.2019 12:10 4,0 C 97 % 1010,5 hPa 0,0 l/m 11,3 km/h (2 Bft) S-SO 150 3,6 C 0,1 C 16,1 km/h (3 Bft)
16.11.2019 12:05 4,1 C 98 % 1010,5 hPa 0,0 l/m 12,4 km/h (2 Bft) SO 139 3,8 C -0,5 C 19,3 km/h (3 Bft)
16.11.2019 12:00 4,1 C 97 % 1010,4 hPa 0,0 l/m 9,3 km/h (2 Bft) O-SO 109 3,7 C 1,6 C 16,1 km/h (3 Bft)
16.11.2019 11:55 4,1 C 97 % 1010,3 hPa 0,0 l/m 10,6 km/h (2 Bft) SO 143 3,7 C 0,7 C 14,5 km/h (3 Bft)
16.11.2019 11:50 4,1 C 97 % 1010,1 hPa 0,0 l/m 8,0 km/h (2 Bft) SO 135 3,7 C 2,7 C 14,5 km/h (3 Bft)
16.11.2019 11:45 4,1 C 98 % 1010,1 hPa 0,0 l/m 9,4 km/h (2 Bft) SO 144 3,8 C 1,5 C 14,5 km/h (3 Bft)
16.11.2019 11:40 4,0 C 98 % 1010,0 hPa 0,0 l/m 9,4 km/h (2 Bft) S-SO 165 3,7 C 1,4 C 16,1 km/h (3 Bft)
16.11.2019 11:35 3,9 C 98 % 1009,9 hPa 0,0 l/m 7,7 km/h (2 Bft) S 169 3,6 C 2,7 C 12,9 km/h (3 Bft)
16.11.2019 11:30 3,8 C 98 % 1009,9 hPa 0,0 l/m 8,4 km/h (2 Bft) SO 135 3,5 C 2,0 C 12,9 km/h (3 Bft)
16.11.2019 11:25 3,8 C 98 % 1009,8 hPa 0,0 l/m 9,3 km/h (2 Bft) SO 144 3,5 C 1,3 C 14,5 km/h (3 Bft)
16.11.2019 11:20 3,8 C 98 % 1009,8 hPa 0,0 l/m 10,5 km/h (2 Bft) S 169 3,5 C 0,4 C 16,1 km/h (3 Bft)
16.11.2019 11:15 3,8 C 98 % 1009,8 hPa 0,0 l/m 11,8 km/h (2 Bft) SO 137 3,5 C -0,5 C 16,1 km/h (3 Bft)
16.11.2019 11:10 3,8 C 98 % 1009,8 hPa 0,0 l/m 11,2 km/h (2 Bft) O-SO 116 3,5 C -0,1 C 14,5 km/h (3 Bft)
16.11.2019 11:05 3,8 C 97 % 1009,8 hPa 0,0 l/m 10,6 km/h (2 Bft) SO 130 3,4 C 0,3 C 16,1 km/h (3 Bft)
16.11.2019 11:00 3,7 C 97 % 1009,9 hPa 0,0 l/m 12,9 km/h (3 Bft) SO 135 3,3 C -1,3 C 17,7 km/h (3 Bft)
16.11.2019 10:55 3,6 C 97 % 1009,8 hPa 0,0 l/m 10,7 km/h (2 Bft) SO 127 3,2 C 0,0 C 14,5 km/h (3 Bft)
16.11.2019 10:50 3,6 C 97 % 1009,8 hPa 0,0 l/m 14,1 km/h (3 Bft) O-SO 119 3,2 C -2,1 C 17,7 km/h (3 Bft)
16.11.2019 10:45 3,8 C 98 % 1009,9 hPa 0,0 l/m 13,1 km/h (3 Bft) SO 136 3,5 C -1,3 C 17,7 km/h (3 Bft)
16.11.2019 10:40 3,8 C 98 % 1009,8 hPa 0,0 l/m 8,5 km/h (2 Bft) SO 130 3,5 C 1,9 C 12,9 km/h (3 Bft)
16.11.2019 10:35 3,9 C 98 % 1009,7 hPa 0,0 l/m 12,7 km/h (3 Bft) SO 143 3,6 C -0,9 C 16,1 km/h (3 Bft)
16.11.2019 10:30 3,9 C 98 % 1009,6 hPa 0,0 l/m 11,8 km/h (2 Bft) SO 126 3,6 C -0,4 C 14,5 km/h (3 Bft)
16.11.2019 10:25 3,9 C 98 % 1009,5 hPa 0,0 l/m 11,1 km/h (2 Bft) O-SO 111 3,6 C 0,1 C 14,5 km/h (3 Bft)
16.11.2019 10:20 3,9 C 98 % 1009,4 hPa 0,0 l/m 10,4 km/h (2 Bft) SO 129 3,6 C 0,6 C 14,5 km/h (3 Bft)
16.11.2019 10:15 3,8 C 98 % 1009,3 hPa 0,0 l/m 8,1 km/h (2 Bft) O-SO 123 3,5 C 2,3 C 12,9 km/h (3 Bft)
16.11.2019 10:10 3,6 C 98 % 1009,2 hPa 0,0 l/m 7,7 km/h (2 Bft) SO 132 3,3 C 2,4 C 11,3 km/h (2 Bft)
16.11.2019 10:05 3,4 C 98 % 1009,3 hPa 0,0 l/m 7,1 km/h (2 Bft) SO 136 3,1 C 2,7 C 12,9 km/h (3 Bft)
16.11.2019 10:00 3,1 C 98 % 1009,3 hPa 0,0 l/m 6,4 km/h (2 Bft) SO 133 2,8 C 3,1 C 11,3 km/h (2 Bft)
16.11.2019 09:55 3,1 C 98 % 1009,1 hPa 0,0 l/m 6,2 km/h (2 Bft) SO 129 2,8 C 3,1 C 11,3 km/h (2 Bft)
16.11.2019 09:50 2,9 C 98 % 1009,1 hPa 0,0 l/m 5,5 km/h (2 Bft) O-SO 119 2,6 C 2,9 C 11,3 km/h (2 Bft)
16.11.2019 09:45 2,9 C 98 % 1009,0 hPa 0,0 l/m 4,8 km/h (1 Bft) SO 128 2,6 C 2,9 C 6,4 km/h (2 Bft)
16.11.2019 09:40 2,8 C 97 % 1008,9 hPa 0,0 l/m 2,1 km/h (1 Bft) SO 128 2,4 C 2,8 C 6,4 km/h (2 Bft)
16.11.2019 09:35 2,8 C 97 % 1008,8 hPa 0,0 l/m 0,7 km/h (0 Bft) SO 133 2,4 C 2,8 C 3,2 km/h (1 Bft)
16.11.2019 09:30 2,7 C 97 % 1008,8 hPa 0,0 l/m 3,3 km/h (1 Bft) SO 133 2,3 C 2,7 C 4,8 km/h (1 Bft)
16.11.2019 09:25 2,7 C 97 % 1008,8 hPa 0,0 l/m 4,7 km/h (1 Bft) SO 142 2,3 C 2,7 C 8,0 km/h (2 Bft)
16.11.2019 09:20 2,6 C 98 % 1008,8 hPa 0,0 l/m 2,2 km/h (1 Bft) S-SO 157 2,3 C 2,6 C 8,0 km/h (2 Bft)
16.11.2019 09:15 2,6 C 98 % 1008,6 hPa 0,0 l/m 2,6 km/h (1 Bft) SO 139 2,3 C 2,6 C 4,8 km/h (1 Bft)
16.11.2019 09:10 2,6 C 98 % 1008,7 hPa 0,0 l/m 3,2 km/h (1 Bft) SO 138 2,3 C 2,6 C 6,4 km/h (2 Bft)
16.11.2019 09:05 2,4 C 97 % 1008,8 hPa 0,0 l/m 1,7 km/h (1 Bft) SO 124 2,0 C 2,4 C 4,8 km/h (1 Bft)
16.11.2019 09:00 2,3 C 97 % 1008,6 hPa 0,0 l/m 0,0 km/h (0 Bft) SO 136 1,9 C 2,3 C 0,0 km/h (0 Bft)
16.11.2019 08:55 2,2 C 98 % 1008,5 hPa 0,0 l/m 0,3 km/h (0 Bft) SO 136 1,9 C 2,2 C 3,2 km/h (1 Bft)
16.11.2019 08:50 2,2 C 97 % 1008,4 hPa 0,0 l/m 0,1 km/h (0 Bft) SO 136 1,8 C 2,2 C 1,6 km/h (1 Bft)
16.11.2019 08:45 2,1 C 97 % 1008,3 hPa 0,0 l/m 2,2 km/h (1 Bft) SO 136 1,7 C 2,1 C 4,8 km/h (1 Bft)
16.11.2019 08:40 2,1 C 97 % 1008,3 hPa 0,0 l/m 2,2 km/h (1 Bft) S-SO 150 1,7 C 2,1 C 4,8 km/h (1 Bft)
16.11.2019 08:35 2,1 C 97 % 1008,2 hPa 0,0 l/m 4,8 km/h (1 Bft) SO 146 1,7 C 2,1 C 8,0 km/h (2 Bft)
16.11.2019 08:30 2,0 C 97 % 1008,2 hPa 0,0 l/m 4,2 km/h (1 Bft) S-SO 155 1,6 C 2,0 C 8,0 km/h (2 Bft)
16.11.2019 08:25 1,9 C 97 % 1008,2 hPa 0,0 l/m 3,3 km/h (1 Bft) SO 146 1,5 C 1,9 C 6,4 km/h (2 Bft)
16.11.2019 08:20 1,9 C 97 % 1008,1 hPa 0,0 l/m 1,7 km/h (1 Bft) O-SO 118 1,5 C 1,9 C 3,2 km/h (1 Bft)
16.11.2019 08:15 1,8 C 97 % 1008,1 hPa 0,0 l/m 0,7 km/h (0 Bft) O-SO 117 1,4 C 1,8 C 4,8 km/h (1 Bft)
16.11.2019 08:10 1,8 C 97 % 1008,0 hPa 0,0 l/m 0,1 km/h (0 Bft) O-SO 117 1,4 C 1,8 C 1,6 km/h (1 Bft)
16.11.2019 08:05 1,7 C 97 % 1008,0 hPa 0,0 l/m 1,7 km/h (1 Bft) O-SO 117 1,3 C 1,7 C 3,2 km/h (1 Bft)
16.11.2019 08:00 1,6 C 97 % 1007,9 hPa 0,0 l/m 2,6 km/h (1 Bft) O-SO 117 1,2 C 1,6 C 4,8 km/h (1 Bft)
16.11.2019 07:55 1,5 C 97 % 1007,9 hPa 0,0 l/m 0,9 km/h (0 Bft) O-SO 123 1,1 C 1,5 C 3,2 km/h (1 Bft)
16.11.2019 07:50 1,4 C 97 % 1007,9 hPa 0,0 l/m 0,0 km/h (0 Bft) O-SO 123 1,0 C 1,4 C 0,0 km/h (0 Bft)
16.11.2019 07:45 1,4 C 97 % 1007,7 hPa 0,0 l/m 0,0 km/h (0 Bft) O-SO 123 1,0 C 1,4 C 0,0 km/h (0 Bft)
16.11.2019 07:40 1,4 C 97 % 1007,5 hPa 0,0 l/m 0,0 km/h (0 Bft) O-SO 123 1,0 C 1,4 C 0,0 km/h (0 Bft)
16.11.2019 07:35 1,3 C 97 % 1007,5 hPa 0,0 l/m 0,0 km/h (0 Bft) O-SO 123 0,9 C 1,3 C 0,0 km/h (0 Bft)
16.11.2019 07:30 1,3 C 97 % 1007,3 hPa 0,0 l/m 0,0 km/h (0 Bft) O-SO 123 0,9 C 1,3 C 0,0 km/h (0 Bft)
16.11.2019 07:25 1,3 C 97 % 1007,2 hPa 0,0 l/m 0,0 km/h (0 Bft) O-SO 123 0,9 C 1,3 C 0,0 km/h (0 Bft)
16.11.2019 07:20 1,3 C 97 % 1007,0 hPa 0,0 l/m 0,0 km/h (0 Bft) O-SO 123 0,9 C 1,3 C 0,0 km/h (0 Bft)
16.11.2019 07:15 1,3 C 97 % 1007,0 hPa 0,0 l/m 0,0 km/h (0 Bft) O-SO 123 0,9 C 1,3 C 0,0 km/h (0 Bft)
16.11.2019 07:10 1,3 C 97 % 1007,0 hPa 0,0 l/m 0,0 km/h (0 Bft) O-SO 123 0,9 C 1,3 C 0,0 km/h (0 Bft)
16.11.2019 07:05 1,3 C 97 % 1007,1 hPa 0,0 l/m 3,2 km/h (1 Bft) O-SO 123 0,9 C 1,3 C 6,4 km/h (2 Bft)
16.11.2019 07:00 1,3 C 97 % 1007,2 hPa 0,0 l/m 4,7 km/h (1 Bft) O-SO 123 0,9 C 1,3 C 6,4 km/h (2 Bft)
16.11.2019 06:55 1,3 C 97 % 1007,0 hPa 0,0 l/m 4,1 km/h (1 Bft) O-SO 119 0,9 C 1,3 C 6,4 km/h (2 Bft)
16.11.2019 06:50 1,3 C 97 % 1006,8 hPa 0,0 l/m 0,7 km/h (0 Bft) O-SO 116 0,9 C 1,3 C 3,2 km/h (1 Bft)
16.11.2019 06:45 1,2 C 97 % 1006,5 hPa 0,0 l/m 0,0 km/h (0 Bft) W-SW 255 0,8 C 1,2 C 0,0 km/h (0 Bft)
16.11.2019 06:40 1,2 C 97 % 1006,5 hPa 0,0 l/m 0,0 km/h (0 Bft) W-SW 255 0,8 C 1,2 C 0,0 km/h (0 Bft)
16.11.2019 06:35 1,2 C 97 % 1006,5 hPa 0,0 l/m 0,0 km/h (0 Bft) W-SW 255 0,8 C 1,2 C 0,0 km/h (0 Bft)
16.11.2019 06:30 1,2 C 97 % 1006,4 hPa 0,0 l/m 0,0 km/h (0 Bft) W-SW 255 0,8 C 1,2 C 0,0 km/h (0 Bft)
16.11.2019 06:25 1,2 C 97 % 1006,2 hPa 0,0 l/m 0,0 km/h (0 Bft) W-SW 255 0,8 C 1,2 C 0,0 km/h (0 Bft)
16.11.2019 06:20 1,2 C 97 % 1006,1 hPa 0,0 l/m 0,0 km/h (0 Bft) W-SW 255 0,8 C 1,2 C 0,0 km/h (0 Bft)
16.11.2019 06:15 1,2 C 97 % 1005,8 hPa 0,0 l/m 1,2 km/h (1 Bft) W-SW 255 0,8 C 1,2 C 4,8 km/h (1 Bft)
16.11.2019 06:10 1,1 C 97 % 1005,7 hPa 0,0 l/m 2,9 km/h (1 Bft) W-SW 255 0,7 C 1,1 C 4,8 km/h (1 Bft)
16.11.2019 06:05 1,1 C 97 % 1005,6 hPa 0,0 l/m 0,8 km/h (0 Bft) W 270 0,7 C 1,1 C 3,2 km/h (1 Bft)
16.11.2019 06:00 1,1 C 97 % 1005,5 hPa 0,0 l/m 1,7 km/h (1 Bft) W 270 0,7 C 1,1 C 3,2 km/h (1 Bft)
16.11.2019 05:55 1,1 C 97 % 1005,5 hPa 0,0 l/m 2,9 km/h (1 Bft) W 268 0,7 C 1,1 C 4,8 km/h (1 Bft)
16.11.2019 05:50 1,1 C 97 % 1005,5 hPa 0,0 l/m 2,8 km/h (1 Bft) W-NW 287 0,7 C 1,1 C 4,8 km/h (1 Bft)
16.11.2019 05:45 1,1 C 97 % 1005,5 hPa 0,0 l/m 1,7 km/h (1 Bft) W-NW 296 0,7 C 1,1 C 4,8 km/h (1 Bft)
16.11.2019 05:40 0,9 C 97 % 1005,5 hPa 0,0 l/m 0,5 km/h (0 Bft) W-NW 295 0,5 C 0,9 C 3,2 km/h (1 Bft)
16.11.2019 05:35 0,9 C 97 % 1005,5 hPa 0,0 l/m 2,1 km/h (1 Bft) W-NW 297 0,5 C 0,9 C 4,8 km/h (1 Bft)
16.11.2019 05:30 0,8 C 97 % 1005,4 hPa 0,0 l/m 3,4 km/h (1 Bft) W 267 0,4 C 0,8 C 8,0 km/h (2 Bft)
16.11.2019 05:25 0,7 C 96 % 1005,3 hPa 0,0 l/m 3,5 km/h (1 Bft) W-NW 296 0,1 C 0,7 C 6,4 km/h (2 Bft)
16.11.2019 05:20 0,7 C 96 % 1005,3 hPa 0,0 l/m 2,0 km/h (1 Bft) W-NW 297 0,1 C 0,7 C 4,8 km/h (1 Bft)
16.11.2019 05:15 0,7 C 96 % 1005,3 hPa 0,0 l/m 1,3 km/h (1 Bft) W-SW 255 0,1 C 0,7 C 3,2 km/h (1 Bft)
16.11.2019 05:10 0,8 C 96 % 1005,3 hPa 0,0 l/m 1,5 km/h (1 Bft) W-SW 255 0,2 C 0,8 C 3,2 km/h (1 Bft)
16.11.2019 05:05 0,9 C 96 % 1005,0 hPa 0,0 l/m 2,5 km/h (1 Bft) W-SW 252 0,3 C 0,9 C 4,8 km/h (1 Bft)
16.11.2019 05:00 1,0 C 96 % 1004,9 hPa 0,0 l/m 2,6 km/h (1 Bft) W 277 0,4 C 1,0 C 4,8 km/h (1 Bft)
16.11.2019 04:55 1,1 C 96 % 1004,8 hPa 0,0 l/m 3,1 km/h (1 Bft) NW 309 0,5 C 1,1 C 4,8 km/h (1 Bft)
16.11.2019 04:50 1,1 C 96 % 1004,8 hPa 0,0 l/m 1,2 km/h (1 Bft) N-NW 334 0,5 C 1,1 C 3,2 km/h (1 Bft)
16.11.2019 04:45 1,1 C 96 % 1004,8 hPa 0,0 l/m 0,0 km/h (0 Bft) W 269 0,5 C 1,1 C 1,6 km/h (1 Bft)
16.11.2019 04:40 1,2 C 96 % 1004,7 hPa 0,0 l/m 0,1 km/h (0 Bft) W 269 0,6 C 1,2 C 1,6 km/h (1 Bft)
16.11.2019 04:35 1,2 C 96 % 1004,6 hPa 0,0 l/m 0,3 km/h (0 Bft) W 269 0,6 C 1,2 C 1,6 km/h (1 Bft)
16.11.2019 04:30 1,2 C 96 % 1004,7 hPa 0,0 l/m 0,2 km/h (0 Bft) W 269 0,6 C 1,2 C 1,6 km/h (1 Bft)
16.11.2019 04:25 1,2 C 96 % 1004,6 hPa 0,0 l/m 1,5 km/h (1 Bft) W 269 0,6 C 1,2 C 3,2 km/h (1 Bft)
16.11.2019 04:20 1,2 C 96 % 1004,6 hPa 0,0 l/m 2,3 km/h (1 Bft) W 269 0,6 C 1,2 C 4,8 km/h (1 Bft)
16.11.2019 04:15 1,3 C 96 % 1004,6 hPa 0,0 l/m 2,9 km/h (1 Bft) W 261 0,7 C 1,3 C 4,8 km/h (1 Bft)
16.11.2019 04:10 1,3 C 96 % 1004,6 hPa 0,0 l/m 3,3 km/h (1 Bft) W-SW 257 0,7 C 1,3 C 6,4 km/h (2 Bft)
16.11.2019 04:05 1,4 C 96 % 1004,7 hPa 0,0 l/m 3,3 km/h (1 Bft) W-SW 250 0,8 C 1,4 C 6,4 km/h (2 Bft)
16.11.2019 04:00 1,6 C 96 % 1004,5 hPa 0,0 l/m 3,2 km/h (1 Bft) W-SW 255 1,0 C 1,6 C 6,4 km/h (2 Bft)
16.11.2019 03:55 1,7 C 96 % 1004,5 hPa 0,0 l/m 3,0 km/h (1 Bft) W 259 1,1 C 1,7 C 6,4 km/h (2 Bft)
16.11.2019 03:50 1,9 C 96 % 1004,4 hPa 0,0 l/m 2,8 km/h (1 Bft) W-SW 250 1,3 C 1,9 C 4,8 km/h (1 Bft)
16.11.2019 03:45 2,0 C 96 % 1004,4 hPa 0,0 l/m 1,6 km/h (1 Bft) NW 305 1,4 C 2,0 C 3,2 km/h (1 Bft)
16.11.2019 03:40 2,2 C 96 % 1004,3 hPa 0,0 l/m 0,0 km/h (0 Bft) NW 313 1,6 C 2,2 C 0,0 km/h (0 Bft)
16.11.2019 03:35 2,3 C 96 % 1004,3 hPa 0,0 l/m 0,0 km/h (0 Bft) NW 313 1,7 C 2,3 C 0,0 km/h (0 Bft)
16.11.2019 03:30 2,4 C 96 % 1004,2 hPa 0,0 l/m 0,0 km/h (0 Bft) NW 313 1,8 C 2,4 C 0,0 km/h (0 Bft)
16.11.2019 03:25 2,5 C 96 % 1004,0 hPa 0,0 l/m 0,3 km/h (0 Bft) NW 313 1,9 C 2,5 C 3,2 km/h (1 Bft)
16.11.2019 03:20 2,6 C 96 % 1003,9 hPa 0,0 l/m 2,3 km/h (1 Bft) NW 313 2,0 C 2,6 C 3,2 km/h (1 Bft)
16.11.2019 03:15 2,7 C 96 % 1004,0 hPa 0,0 l/m 2,0 km/h (1 Bft) NW 313 2,1 C 2,7 C 3,2 km/h (1 Bft)
16.11.2019 03:10 2,7 C 96 % 1004,1 hPa 0,0 l/m 2,5 km/h (1 Bft) NW 313 2,1 C 2,7 C 4,8 km/h (1 Bft)
16.11.2019 03:05 2,8 C 97 % 1004,1 hPa 0,0 l/m 2,7 km/h (1 Bft) NW 313 2,4 C 2,8 C 4,8 km/h (1 Bft)
16.11.2019 03:00 2,8 C 97 % 1004,1 hPa 0,0 l/m 2,9 km/h (1 Bft) NW 309 2,4 C 2,8 C 4,8 km/h (1 Bft)
16.11.2019 02:55 2,9 C 97 % 1004,2 hPa 0,0 l/m 3,0 km/h (1 Bft) NW 304 2,5 C 2,9 C 4,8 km/h (1 Bft)
16.11.2019 02:50 2,9 C 97 % 1004,2 hPa 0,0 l/m 3,2 km/h (1 Bft) W-NW 298 2,5 C 2,9 C 6,4 km/h (2 Bft)
16.11.2019 02:45 2,9 C 97 % 1004,2 hPa 0,0 l/m 2,6 km/h (1 Bft) W-NW 296 2,5 C 2,9 C 4,8 km/h (1 Bft)
16.11.2019 02:40 2,9 C 97 % 1004,2 hPa 0,0 l/m 1,4 km/h (1 Bft) W 260 2,5 C 2,9 C 3,2 km/h (1 Bft)
16.11.2019 02:35 2,9 C 97 % 1004,3 hPa 0,0 l/m 4,3 km/h (1 Bft) W 259 2,5 C 2,9 C 8,0 km/h (2 Bft)
16.11.2019 02:30 2,9 C 97 % 1004,3 hPa 0,0 l/m 5,4 km/h (2 Bft) W-SW 246 2,5 C 2,9 C 11,3 km/h (2 Bft)
16.11.2019 02:25 2,9 C 97 % 1004,2 hPa 0,0 l/m 4,4 km/h (1 Bft) W-SW 255 2,5 C 2,9 C 8,0 km/h (2 Bft)
16.11.2019 02:20 3,0 C 97 % 1004,2 hPa 0,0 l/m 5,2 km/h (1 Bft) W-SW 239 2,6 C 3,0 C 8,0 km/h (2 Bft)
16.11.2019 02:15 3,0 C 96 % 1004,2 hPa 0,0 l/m 5,8 km/h (2 Bft) SW 229 2,4 C 3,0 C 8,0 km/h (2 Bft)
16.11.2019 02:10 3,0 C 96 % 1004,1 hPa 0,0 l/m 6,7 km/h (2 Bft) W-SW 237 2,4 C 2,7 C 9,7 km/h (2 Bft)
16.11.2019 02:05 2,9 C 96 % 1004,1 hPa 0,0 l/m 7,8 km/h (2 Bft) SW 235 2,3 C 1,6 C 11,3 km/h (2 Bft)
16.11.2019 02:00 3,0 C 96 % 1004,0 hPa 0,0 l/m 6,9 km/h (2 Bft) SW 233 2,4 C 2,5 C 11,3 km/h (2 Bft)
16.11.2019 01:55 3,0 C 96 % 1004,0 hPa 0,0 l/m 5,6 km/h (2 Bft) SW 228 2,4 C 3,0 C 8,0 km/h (2 Bft)
16.11.2019 01:50 3,0 C 96 % 1004,0 hPa 0,0 l/m 6,6 km/h (2 Bft) SW 232 2,4 C 2,8 C 9,7 km/h (2 Bft)
16.11.2019 01:45 3,0 C 96 % 1003,9 hPa 0,0 l/m 5,8 km/h (2 Bft) SW 229 2,4 C 3,0 C 8,0 km/h (2 Bft)
16.11.2019 01:40 3,1 C 96 % 1003,9 hPa 0,0 l/m 6,7 km/h (2 Bft) SW 235 2,5 C 2,8 C 9,7 km/h (2 Bft)
16.11.2019 01:35 3,1 C 96 % 1003,9 hPa 0,0 l/m 6,5 km/h (2 Bft) SW 230 2,5 C 3,0 C 9,7 km/h (2 Bft)
16.11.2019 01:30 3,1 C 96 % 1003,9 hPa 0,0 l/m 4,5 km/h (1 Bft) SW 230 2,5 C 3,1 C 6,4 km/h (2 Bft)
16.11.2019 01:25 3,2 C 96 % 1003,9 hPa 0,0 l/m 2,9 km/h (1 Bft) W-SW 253 2,6 C 3,2 C 6,4 km/h (2 Bft)
16.11.2019 01:20 3,2 C 96 % 1003,8 hPa 0,0 l/m 2,7 km/h (1 Bft) W 259 2,6 C 3,2 C 4,8 km/h (1 Bft)
16.11.2019 01:15 3,2 C 96 % 1003,9 hPa 0,0 l/m 2,8 km/h (1 Bft) W 265 2,6 C 3,2 C 6,4 km/h (2 Bft)
16.11.2019 01:10 3,2 C 96 % 1003,9 hPa 0,2 l/m 2,8 km/h (1 Bft) W 268 2,6 C 3,2 C 4,8 km/h (1 Bft)
16.11.2019 01:05 3,3 C 96 % 1003,9 hPa 0,0 l/m 3,1 km/h (1 Bft) W 270 2,7 C 3,3 C 4,8 km/h (1 Bft)
16.11.2019 01:00 3,3 C 96 % 1004,0 hPa 0,2 l/m 1,9 km/h (1 Bft) W 279 2,7 C 3,3 C 3,2 km/h (1 Bft)
16.11.2019 00:55 3,3 C 96 % 1004,0 hPa 0,0 l/m 2,6 km/h (1 Bft) W 279 2,7 C 3,3 C 4,8 km/h (1 Bft)
16.11.2019 00:50 3,3 C 96 % 1003,9 hPa 0,0 l/m 2,3 km/h (1 Bft) W-NW 285 2,7 C 3,3 C 4,8 km/h (1 Bft)
16.11.2019 00:45 3,3 C 96 % 1004,1 hPa 0,2 l/m 2,0 km/h (1 Bft) W-NW 284 2,7 C 3,3 C 3,2 km/h (1 Bft)
16.11.2019 00:40 3,3 C 96 % 1004,1 hPa 0,0 l/m 2,5 km/h (1 Bft) W-NW 284 2,7 C 3,3 C 3,2 km/h (1 Bft)
16.11.2019 00:35 3,3 C 96 % 1004,1 hPa 0,2 l/m 2,5 km/h (1 Bft) W 281 2,7 C 3,3 C 4,8 km/h (1 Bft)
16.11.2019 00:30 3,3 C 96 % 1004,1 hPa 0,0 l/m 2,3 km/h (1 Bft) W 269 2,7 C 3,3 C 4,8 km/h (1 Bft)
16.11.2019 00:25 3,3 C 96 % 1004,0 hPa 0,2 l/m 3,4 km/h (1 Bft) W 264 2,7 C 3,3 C 8,0 km/h (2 Bft)
16.11.2019 00:20 3,3 C 96 % 1004,0 hPa 0,0 l/m 6,2 km/h (2 Bft) W-SW 254 2,7 C 3,3 C 8,0 km/h (2 Bft)
16.11.2019 00:15 3,3 C 96 % 1003,9 hPa 0,0 l/m 5,6 km/h (2 Bft) W-SW 240 2,7 C 3,3 C 8,0 km/h (2 Bft)
16.11.2019 00:10 3,3 C 96 % 1003,9 hPa 0,2 l/m 5,2 km/h (1 Bft) W-SW 242 2,7 C 3,3 C 11,3 km/h (2 Bft)
16.11.2019 00:05 3,3 C 96 % 1003,9 hPa 0,0 l/m 6,6 km/h (2 Bft) W-SW 240 2,7 C 3,1 C 8,0 km/h (2 Bft)
16.11.2019 00:00 3,4 C 96 % 1003,8 hPa 0,2 l/m 5,1 km/h (1 Bft) W-SW 244 2,8 C 3,4 C 9,7 km/h (2 Bft)
15.11.2019 23:55 3,4 C 96 % 1003,8 hPa 0,2 l/m 6,7 km/h (2 Bft) W-SW 240 2,8 C 3,1 C 11,3 km/h (2 Bft)
15.11.2019 23:50 3,4 C 96 % 1003,8 hPa 0,2 l/m 6,5 km/h (2 Bft) W-SW 243 2,8 C 3,3 C 8,0 km/h (2 Bft)
15.11.2019 23:45 3,4 C 96 % 1003,8 hPa 0,2 l/m 6,3 km/h (2 Bft) W-SW 246 2,8 C 3,4 C 8,0 km/h (2 Bft)
15.11.2019 23:40 3,4 C 96 % 1003,8 hPa 0,0 l/m 4,5 km/h (1 Bft) W-SW 246 2,8 C 3,4 C 9,7 km/h (2 Bft)
15.11.2019 23:35 3,4 C 96 % 1003,7 hPa 0,2 l/m 4,2 km/h (1 Bft) W-SW 254 2,8 C 3,4 C 8,0 km/h (2 Bft)
15.11.2019 23:30 3,4 C 96 % 1003,8 hPa 0,0 l/m 4,1 km/h (1 Bft) W-SW 255 2,8 C 3,4 C 9,7 km/h (2 Bft)
15.11.2019 23:25 3,5 C 96 % 1003,8 hPa 0,2 l/m 5,4 km/h (2 Bft) W 268 2,9 C 3,5 C 9,7 km/h (2 Bft)
15.11.2019 23:20 3,5 C 96 % 1003,8 hPa 0,2 l/m 3,5 km/h (1 Bft) W-NW 292 2,9 C 3,5 C 8,0 km/h (2 Bft)
15.11.2019 23:15 3,5 C 96 % 1003,8 hPa 0,2 l/m 3,1 km/h (1 Bft) W-NW 288 2,9 C 3,5 C 8,0 km/h (2 Bft)
15.11.2019 23:10 3,5 C 96 % 1003,8 hPa 0,2 l/m 2,7 km/h (1 Bft) W 281 2,9 C 3,5 C 6,4 km/h (2 Bft)
15.11.2019 23:05 3,5 C 96 % 1003,9 hPa 0,2 l/m 2,1 km/h (1 Bft) W 279 2,9 C 3,5 C 4,8 km/h (1 Bft)
15.11.2019 23:00 3,6 C 96 % 1003,9 hPa 0,0 l/m 6,4 km/h (2 Bft) W 261 3,0 C 3,6 C 12,9 km/h (3 Bft)
_ Min-Zeit 05:25 15:35 23:35 - 14:50 - - 05:25 21:40 09:00
Minimum _ 0,7 C 91 % 1003,7 hPa - 0,0 km/h (0 Bft) - - 0,1 C -2,3 C 0,0 km/h (0 Bft)
_ Max-Zeit 15:25 13:20 20:05 01:10 10:50 - - 14:00 15:15 12:05
Maximum _ 5,9 C 98 % 1013,3 hPa 0,2 l/m 14,1 km/h
O-SO (3 Bft)
- - 5,4 C 5,9 C 19,3 km/h
O-SO (3 Bft)
Durchschnitt _ 3,3 C 96 % 1008,4 hPa #3,2 l/m 5,2 km/h (1 Bft) O - 2,7 C 2,5 C 9,1 km/h (2 Bft)